Time;durP1;ratioP1;P1;durP2;ratioP2;P2;SDS_P1;SDS_P2;PMS_P1;PMS_P2;Temp;Humidity;BMP_temperature;BMP_pressure;BME280_temperature;BME280_humidity;BME280_pressure;Samples;Min_cycle;Max_cycle;Signal;HPM_P1;HPM_P2
2024/03/15 00:01:19;;;;;;;;;;;;;;;8.79;51.24;94919.25;4979827;28;20396;-70
2024/03/15 00:03:45;;;;;;;;;;;;;;;8.72;51.07;94920.97;4975824;28;19937;-71
2024/03/15 00:06:13;;;;;;;;;;;;;;;8.78;50.06;94909.63;4979408;28;19926;-71
2024/03/15 00:08:39;;;;;;;;;;;;;;;8.82;50.29;94910.09;4975083;28;19948;-69
2024/03/15 00:11:04;;;;;;;;;;;;;;;8.66;51.43;94914.56;4979885;28;20031;-69
2024/03/15 00:13:29;;;;;;;;;;;;;;;8.77;51.03;94910.63;4979426;28;20032;-69
2024/03/15 00:15:55;;;;;;;;;;;;;;;8.76;51.08;94914.28;4981710;28;19960;-70
2024/03/15 00:18:20;;;;;;;;;;;;;;;8.89;50.07;94910.16;4982058;28;19955;-71
2024/03/15 00:20:45;;;;;;;;;;;;;;;8.86;50.26;94914.00;4982542;28;21303;-69
2024/03/15 00:23:11;;;;;;;;;;;;;;;8.85;49.92;94916.84;4982631;28;19926;-70
2024/03/15 00:25:36;;;;;;;;;;;;;;;8.75;52.43;94917.13;4983329;28;19932;-70
2024/03/15 00:28:02;;;;;;;;;;;;;;;8.79;49.83;94919.25;4983571;28;20282;-70
2024/03/15 00:30:27;;;;;;;;;;;;;;;8.76;50.56;94922.25;4981352;28;19926;-69
2024/03/15 00:32:53;;;;;;;;;;;;;;;8.79;50.31;94924.56;4982032;28;19934;-70
2024/03/15 00:35:19;;;;;;;;;;;;;;;8.83;50.01;94919.69;4981813;28;20243;-70
2024/03/15 00:37:45;;;;;;;;;;;;;;;8.81;50.85;94921.72;4982063;28;19932;-70
2024/03/15 00:40:11;;;;;;;;;;;;;;;8.86;51.16;94921.16;4980201;28;19929;-69
2024/03/15 00:42:37;;;;;;;;;;;;;;;8.33;53.83;94927.34;4981631;28;19929;-70
2024/03/15 00:45:02;;;;;;;;;;;;;;;8.47;52.45;94920.41;4981796;28;20402;-71
2024/03/15 00:47:28;;;;;;;;;;;;;;;8.58;51.54;94917.31;4982041;28;19924;-70
2024/03/15 00:49:53;;;;;;;;;;;;;;;8.65;50.26;94920.06;4981820;28;19933;-68
2024/03/15 00:52:19;;;;;;;;;;;;;;;8.71;49.97;94908.72;4982168;28;20523;-68
2024/03/15 00:54:45;;;;;;;;;;;;;;;8.68;51.17;94914.41;4981583;28;19934;-68
2024/03/15 00:57:11;;;;;;;;;;;;;;;8.68;49.97;94906.44;4982117;28;19922;-69
2024/03/15 00:59:36;;;;;;;;;;;;;;;8.56;50.73;94909.53;4983305;28;21117;-68
2024/03/15 01:02:01;;;;;;;;;;;;;;;8.54;52.42;94911.53;4982078;28;20101;-68
2024/03/15 01:04:29;;;;;;;;;;;;;;;8.54;51.29;94910.72;4980348;28;19951;-69
2024/03/15 01:06:54;;;;;;;;;;;;;;;8.63;51.06;94909.63;4989688;28;20016;-68
2024/03/15 01:09:20;;;;;;;;;;;;;;;8.70;51.51;94904.41;4981201;28;19980;-69
2024/03/15 01:11:46;;;;;;;;;;;;;;;8.61;52.13;94909.00;4978935;28;19926;-69
2024/03/15 01:14:11;;;;;;;;;;;;;;;8.57;52.31;94910.38;4971756;28;20146;-68
2024/03/15 01:16:37;;;;;;;;;;;;;;;8.40;52.76;94902.56;4981262;28;19932;-68
2024/03/15 01:19:04;;;;;;;;;;;;;;;8.41;53.02;94901.59;4983167;28;20532;-68
2024/03/15 01:21:29;;;;;;;;;;;;;;;8.46;52.60;94894.91;4980195;28;20646;-69
2024/03/15 01:23:54;;;;;;;;;;;;;;;8.56;52.10;94898.09;4979164;28;19932;-68
2024/03/15 01:26:20;;;;;;;;;;;;;;;8.40;53.20;94896.47;4981207;28;20560;-68
2024/03/15 01:28:45;;;;;;;;;;;;;;;8.03;54.67;94893.66;4980129;28;19925;-68
2024/03/15 01:31:10;;;;;;;;;;;;;;;8.12;54.23;94894.38;4996825;28;19967;-69
2024/03/15 01:33:35;;;;;;;;;;;;;;;8.27;53.67;94895.22;4978700;28;19922;-68
2024/03/15 01:36:01;;;;;;;;;;;;;;;8.47;52.32;94894.69;4981160;28;19969;-68
2024/03/15 01:38:26;;;;;;;;;;;;;;;8.44;52.32;94890.59;4981886;28;20049;-68
2024/03/15 01:40:52;;;;;;;;;;;;;;;8.27;52.79;94889.13;4978572;28;20346;-68
2024/03/15 01:43:17;;;;;;;;;;;;;;;8.02;53.59;94882.22;4977009;28;19969;-68
2024/03/15 01:45:42;;;;;;;;;;;;;;;8.14;52.60;94881.78;4978406;28;20452;-68
2024/03/15 01:48:08;;;;;;;;;;;;;;;8.28;52.41;94883.66;4973853;28;19954;-68
2024/03/15 01:50:36;;;;;;;;;;;;;;;8.26;51.93;94885.63;4977212;28;19925;-69
2024/03/15 01:53:02;;;;;;;;;;;;;;;8.28;51.65;94883.66;4975686;28;20714;-69
2024/03/15 01:55:27;;;;;;;;;;;;;;;8.29;51.71;94887.94;4978727;28;20363;-68
2024/03/15 01:57:53;;;;;;;;;;;;;;;8.27;51.58;94883.81;4977950;28;19929;-69
2024/03/15 02:00:19;;;;;;;;;;;;;;;8.21;51.85;94877.41;4981441;28;19921;-69
2024/03/15 02:02:44;;;;;;;;;;;;;;;8.10;52.07;94884.00;4978798;28;19922;-71
2024/03/15 02:05:16;;;;;;;;;;;;;;;8.02;52.16;94879.56;4979223;28;20454;-70
2024/03/15 02:07:41;;;;;;;;;;;;;;;8.02;52.36;94870.78;4976630;28;20045;-69
2024/03/15 02:10:13;;;;;;;;;;;;;;;8.02;52.41;94870.78;4976624;28;20044;-70
2024/03/15 02:12:38;;;;;;;;;;;;;;;7.87;52.62;94870.75;4977692;28;19918;-69
2024/03/15 02:15:10;;;;;;;;;;;;;;;7.78;52.68;94865.53;4978374;28;19918;-70
2024/03/15 02:17:36;;;;;;;;;;;;;;;7.76;52.53;94872.81;4977939;28;19926;-69
2024/03/15 02:20:01;;;;;;;;;;;;;;;7.83;52.54;94870.31;4980999;28;19918;-68
2024/03/15 02:22:26;;;;;;;;;;;;;;;7.82;52.83;94871.28;4980369;28;19929;-70
2024/03/15 02:24:52;;;;;;;;;;;;;;;7.81;52.54;94868.81;4976895;28;20526;-70
2024/03/15 02:27:17;;;;;;;;;;;;;;;7.73;51.99;94867.88;4980885;28;19965;-70
2024/03/15 02:29:42;;;;;;;;;;;;;;;7.71;52.11;94863.75;4976291;28;19958;-70
2024/03/15 02:32:08;;;;;;;;;;;;;;;7.75;52.37;94865.06;4980314;28;20318;-69
2024/03/15 02:34:36;;;;;;;;;;;;;;;7.73;52.25;94861.75;4977114;28;19925;-69
2024/03/15 02:37:02;;;;;;;;;;;;;;;7.81;52.14;94864.34;4978130;28;19959;-71
2024/03/15 02:39:27;;;;;;;;;;;;;;;8.03;51.92;94870.59;4977043;28;20524;-69
2024/03/15 02:41:53;;;;;;;;;;;;;;;8.08;52.49;94869.25;4971189;28;20051;-69
2024/03/15 02:44:18;;;;;;;;;;;;;;;8.12;53.11;94881.13;4976006;28;19926;-70
2024/03/15 02:46:44;;;;;;;;;;;;;;;8.19;52.68;94879.41;4976526;28;20441;-69
2024/03/15 02:49:09;;;;;;;;;;;;;;;8.29;52.00;94879.16;4979441;28;19933;-70
2024/03/15 02:51:35;;;;;;;;;;;;;;;8.34;51.42;94881.25;4972146;28;20391;-69
2024/03/15 02:54:00;;;;;;;;;;;;;;;8.38;51.29;94877.25;4969527;28;19922;-70
2024/03/15 02:56:26;;;;;;;;;;;;;;;8.37;51.39;94868.44;4974673;28;19976;-69
2024/03/15 02:58:51;;;;;;;;;;;;;;;8.28;51.96;94862.44;4977424;28;19921;-69
2024/03/15 03:01:16;;;;;;;;;;;;;;;8.34;51.86;94855.56;4977365;28;20011;-71
2024/03/15 03:03:41;;;;;;;;;;;;;;;8.36;52.06;94884.56;4976264;28;19926;-70
2024/03/15 03:06:07;;;;;;;;;;;;;;;8.33;51.95;94876.97;4973748;28;20395;-69
2024/03/15 03:08:34;;;;;;;;;;;;;;;8.35;51.87;94873.13;4977485;28;20031;-70
2024/03/15 03:10:59;;;;;;;;;;;;;;;8.27;51.91;94881.97;4970281;28;20392;-70
2024/03/15 03:13:24;;;;;;;;;;;;;;;8.31;51.65;94882.44;4977949;28;20035;-69
2024/03/15 03:15:49;;;;;;;;;;;;;;;8.28;52.05;94891.59;4978093;28;19969;-71
2024/03/15 03:18:15;;;;;;;;;;;;;;;8.26;52.08;94880.34;4977072;28;20314;-69
2024/03/15 03:20:40;;;;;;;;;;;;;;;8.17;52.94;94884.09;4973251;28;19941;-70
2024/03/15 03:23:08;;;;;;;;;;;;;;;8.30;52.87;94883.47;4978326;28;20013;-69
2024/03/15 03:25:33;;;;;;;;;;;;;;;7.88;54.33;94875.06;4973989;28;19996;-69
2024/03/15 03:27:59;;;;;;;;;;;;;;;8.18;53.89;94875.13;4979710;28;20426;-70
2024/03/15 03:30:24;;;;;;;;;;;;;;;8.40;52.64;94878.69;4973058;28;19926;-69
2024/03/15 03:32:49;;;;;;;;;;;;;;;8.32;53.17;94883.28;4977959;28;19925;-70
2024/03/15 03:35:15;;;;;;;;;;;;;;;8.62;52.19;94881.44;4978961;28;19926;-69
2024/03/15 03:37:40;;;;;;;;;;;;;;;8.63;51.72;94875.13;4979217;28;20636;-69
2024/03/15 03:40:14;;;;;;;;;;;;;;;8.39;52.47;94876.22;4974985;28;19922;-69
2024/03/15 03:42:42;;;;;;;;;;;;;;;8.60;51.77;94869.38;4973668;28;20021;-71
2024/03/15 03:45:15;;;;;;;;;;;;;;;8.70;51.63;94875.22;4971884;28;19976;-71
2024/03/15 03:47:41;;;;;;;;;;;;;;;8.52;51.44;94875.59;4977400;28;20404;-70
2024/03/15 03:50:06;;;;;;;;;;;;;;;8.61;51.78;94863.91;4974629;28;19921;-71
2024/03/15 03:52:32;;;;;;;;;;;;;;;8.78;51.35;94875.09;4973943;28;19929;-69
2024/03/15 03:54:57;;;;;;;;;;;;;;;8.74;51.60;94873.84;4976013;28;19988;-71
2024/03/15 03:57:22;;;;;;;;;;;;;;;8.38;51.90;94880.72;4971203;28;19940;-69
2024/03/15 03:59:49;;;;;;;;;;;;;;;8.20;52.87;94877.59;4977440;28;19929;-69
2024/03/15 04:02:14;;;;;;;;;;;;;;;8.23;52.94;94872.72;4974473;28;20450;-70
2024/03/15 04:04:39;;;;;;;;;;;;;;;8.25;52.70;94877.88;4976967;28;19934;-69
2024/03/15 04:07:04;;;;;;;;;;;;;;;8.09;53.66;94887.63;4972267;28;20043;-71
2024/03/15 04:09:30;;;;;;;;;;;;;;;8.22;52.89;94880.88;4976077;28;20013;-69
2024/03/15 04:11:55;;;;;;;;;;;;;;;8.36;52.17;94871.31;4974892;28;19925;-69
2024/03/15 04:14:20;;;;;;;;;;;;;;;8.38;52.63;94885.19;4976103;28;19977;-69
2024/03/15 04:16:45;;;;;;;;;;;;;;;8.33;52.08;94884.94;4975087;28;19957;-69
2024/03/15 04:19:11;;;;;;;;;;;;;;;8.33;52.74;94874.31;4975730;28;20008;-68
2024/03/15 04:21:36;;;;;;;;;;;;;;;8.04;53.95;94876.75;4970455;28;19961;-68
2024/03/15 04:24:05;;;;;;;;;;;;;;;8.22;52.71;94875.56;4975830;28;19928;-68
2024/03/15 04:26:31;;;;;;;;;;;;;;;8.15;53.44;94883.44;4974590;28;19930;-68
2024/03/15 04:28:57;;;;;;;;;;;;;;;8.45;52.24;94880.81;4976618;28;19933;-68
2024/03/15 04:31:22;;;;;;;;;;;;;;;8.48;51.85;94880.44;4977848;28;20409;-68
2024/03/15 04:33:49;;;;;;;;;;;;;;;8.56;51.55;94880.34;4975253;28;20386;-67
2024/03/15 04:36:15;;;;;;;;;;;;;;;8.55;51.13;94876.06;4976663;28;20646;-68
2024/03/15 04:38:40;;;;;;;;;;;;;;;8.55;50.76;94875.22;4975928;28;19925;-67
2024/03/15 04:41:11;;;;;;;;;;;;;;;8.34;51.31;94878.59;4976776;28;20495;-68
2024/03/15 04:43:36;;;;;;;;;;;;;;;8.41;51.01;94879.53;4977171;28;19925;-67
2024/03/15 04:46:03;;;;;;;;;;;;;;;8.43;50.67;94878.34;4974024;28;19922;-68
2024/03/15 04:48:28;;;;;;;;;;;;;;;8.43;51.21;94877.50;4975539;28;20410;-68
2024/03/15 04:50:53;;;;;;;;;;;;;;;8.39;51.17;94877.06;4974131;28;19976;-68
2024/03/15 04:53:19;;;;;;;;;;;;;;;8.37;51.52;94871.09;4975341;28;20549;-68
2024/03/15 04:55:44;;;;;;;;;;;;;;;8.07;52.63;94871.09;4974842;28;19929;-68
2024/03/15 04:58:11;;;;;;;;;;;;;;;8.32;51.74;94873.47;4977377;28;19926;-68
2024/03/15 05:00:37;;;;;;;;;;;;;;;8.38;51.42;94878.06;4972066;28;20028;-68
2024/03/15 05:03:03;;;;;;;;;;;;;;;8.22;51.46;94871.09;4981236;28;20462;-68
2024/03/15 05:05:29;;;;;;;;;;;;;;;8.27;51.81;94874.03;4977436;28;19925;-67
2024/03/15 05:07:55;;;;;;;;;;;;;;;8.28;51.79;94874.84;4982268;28;19972;-68
2024/03/15 05:10:20;;;;;;;;;;;;;;;8.03;52.79;94870.59;4974673;28;20575;-68
2024/03/15 05:12:45;;;;;;;;;;;;;;;7.60;54.27;94873.78;4974997;28;19934;-67
2024/03/15 05:15:11;;;;;;;;;;;;;;;7.94;52.77;94866.41;4974627;28;19926;-68
2024/03/15 05:17:36;;;;;;;;;;;;;;;7.90;52.90;94878.38;4979510;28;19982;-67
2024/03/15 05:20:02;;;;;;;;;;;;;;;7.84;52.90;94869.31;4975837;28;19922;-68
2024/03/15 05:22:28;;;;;;;;;;;;;;;7.83;53.05;94874.78;4974399;28;19951;-68
2024/03/15 05:24:53;;;;;;;;;;;;;;;7.46;53.76;94877.19;4973196;28;20571;-67
2024/03/15 05:27:18;;;;;;;;;;;;;;;7.55;53.20;94876.09;4979463;28;19988;-67
2024/03/15 05:29:43;;;;;;;;;;;;;;;7.31;54.01;94874.47;4976996;28;19926;-68
2024/03/15 05:32:09;;;;;;;;;;;;;;;7.08;55.54;94875.28;4979291;28;19922;-69
2024/03/15 05:34:34;;;;;;;;;;;;;;;7.69;53.88;94868.41;4980985;28;19922;-68
2024/03/15 05:37:01;;;;;;;;;;;;;;;7.47;54.21;94877.00;4983607;28;19976;-68
2024/03/15 05:39:28;;;;;;;;;;;;;;;7.54;53.38;94870.00;4975087;28;19925;-68
2024/03/15 05:41:53;;;;;;;;;;;;;;;6.80;56.36;94876.56;4978498;28;19933;-69
2024/03/15 05:44:19;;;;;;;;;;;;;;;7.40;54.33;94865.47;4970569;28;20388;-68
2024/03/15 05:46:44;;;;;;;;;;;;;;;7.66;53.65;94861.66;4988729;28;20131;-69
2024/03/15 05:49:10;;;;;;;;;;;;;;;7.58;53.75;94864.38;4973277;28;19926;-68
2024/03/15 05:51:35;;;;;;;;;;;;;;;7.49;54.21;94867.06;4980261;28;19977;-68
2024/03/15 05:54:00;;;;;;;;;;;;;;;7.49;53.61;94869.72;4982675;28;19976;-68
2024/03/15 05:56:26;;;;;;;;;;;;;;;7.70;53.60;94862.94;4978686;28;19985;-68
2024/03/15 05:58:51;;;;;;;;;;;;;;;6.56;56.68;94872.22;4979933;28;19921;-68
2024/03/15 06:01:17;;;;;;;;;;;;;;;7.48;54.92;94861.94;4978026;28;19926;-68
2024/03/15 06:03:42;;;;;;;;;;;;;;;7.67;53.83;94865.94;4979521;28;20415;-69
2024/03/15 06:06:08;;;;;;;;;;;;;;;7.90;53.55;94862.47;4976927;28;20459;-68
2024/03/15 06:08:34;;;;;;;;;;;;;;;7.81;53.78;94866.16;4979239;28;19972;-69
2024/03/15 06:10:59;;;;;;;;;;;;;;;6.21;57.98;94870.63;4977382;28;19926;-68
2024/03/15 06:13:25;;;;;;;;;;;;;;;7.95;54.55;94869.88;4979745;28;20080;-68
2024/03/15 06:15:50;;;;;;;;;;;;;;;7.90;54.25;94867.75;4977624;28;20409;-68
2024/03/15 06:18:15;;;;;;;;;;;;;;;8.27;52.98;94878.50;4974362;28;19930;-68
2024/03/15 06:20:41;;;;;;;;;;;;;;;8.33;53.11;94879.63;4974553;28;19983;-68
2024/03/15 06:23:06;;;;;;;;;;;;;;;6.71;57.75;94878.44;4980070;28;19940;-68
2024/03/15 06:25:31;;;;;;;;;;;;;;;7.90;55.37;94883.66;4987274;28;20746;-68
2024/03/15 06:27:59;;;;;;;;;;;;;;;7.48;56.90;94891.88;4978961;28;20584;-68
2024/03/15 06:30:25;;;;;;;;;;;;;;;8.21;54.35;94890.66;4977024;28;20030;-68
2024/03/15 06:32:51;;;;;;;;;;;;;;;8.11;54.68;94880.31;4974678;28;19930;-68
2024/03/15 06:35:19;;;;;;;;;;;;;;;8.36;53.80;94884.56;4973774;28;19929;-68
2024/03/15 06:37:53;;;;;;;;;;;;;;;8.43;53.64;94891.59;4975878;28;19975;-68
2024/03/15 06:40:19;;;;;;;;;;;;;;;8.33;53.60;94890.22;4977223;28;19929;-67
2024/03/15 06:45:44;;;;;;;;;;;;;;;8.45;54.06;94891.41;4980599;28;19925;-67
2024/03/15 06:48:17;;;;;;;;;;;;;;;7.18;56.49;94894.41;4972901;28;19929;-67
2024/03/15 06:50:48;;;;;;;;;;;;;;;7.42;57.15;94900.56;4976641;28;20198;-67
2024/03/15 06:53:18;;;;;;;;;;;;;;;7.78;55.64;94899.16;4975923;28;20427;-67
2024/03/15 06:55:43;;;;;;;;;;;;;;;7.55;56.79;94899.94;4978989;28;19918;-67
2024/03/15 06:58:09;;;;;;;;;;;;;;;7.58;56.69;94896.16;4974039;28;19936;-67
2024/03/15 07:00:35;;;;;;;;;;;;;;;7.80;56.40;94894.50;4978033;28;19976;-67
2024/03/15 07:03:01;;;;;;;;;;;;;;;8.02;56.05;94895.47;4976186;28;20400;-67
2024/03/15 07:05:28;;;;;;;;;;;;;;;7.77;56.13;94895.69;4974516;28;19940;-67
2024/03/15 07:07:53;;;;;;;;;;;;;;;7.96;55.65;94887.44;4977742;28;19925;-67
2024/03/15 07:10:18;;;;;;;;;;;;;;;8.36;55.06;94893.31;4977750;28;19976;-67
2024/03/15 07:12:46;;;;;;;;;;;;;;;8.64;53.72;94897.19;4974625;28;20551;-67
2024/03/15 07:15:11;;;;;;;;;;;;;;;7.95;56.65;94891.91;4978357;28;19968;-67
2024/03/15 07:17:36;;;;;;;;;;;;;;;7.72;57.12;94898.00;4974928;28;19934;-67
2024/03/15 07:20:07;;;;;;;;;;;;;;;8.04;55.16;94893.50;4973794;28;19991;-67
2024/03/15 07:22:33;;;;;;;;;;;;;;;7.64;57.84;94900.72;4977996;28;20365;-67
2024/03/15 07:24:59;;;;;;;;;;;;;;;8.76;54.02;94905.50;4976838;28;20104;-67
2024/03/15 07:27:25;;;;;;;;;;;;;;;8.89;53.90;94900.38;4975490;28;19941;-67
2024/03/15 07:29:50;;;;;;;;;;;;;;;8.11;55.34;94922.75;4976261;28;19925;-68
2024/03/15 07:32:15;;;;;;;;;;;;;;;7.96;57.30;94909.44;4973564;28;19933;-67
2024/03/15 07:34:41;;;;;;;;;;;;;;;7.74;57.65;94917.22;4976981;28;20554;-67
2024/03/15 07:37:06;;;;;;;;;;;;;;;7.95;56.58;94920.25;4974021;28;20054;-67
2024/03/15 07:39:32;;;;;;;;;;;;;;;7.52;58.91;94924.97;4979272;28;19957;-67
2024/03/15 07:42:00;;;;;;;;;;;;;;;8.41;55.88;94922.81;4972424;28;19926;-67
2024/03/15 07:44:27;;;;;;;;;;;;;;;8.73;54.99;94914.66;4976348;28;19937;-67
2024/03/15 07:46:53;;;;;;;;;;;;;;;8.50;54.82;94920.88;4976096;28;20129;-67
2024/03/15 07:49:18;;;;;;;;;;;;;;;7.56;57.59;94945.81;4979772;28;20368;-67
2024/03/15 07:51:46;;;;;;;;;;;;;;;7.90;57.13;94937.50;4974824;28;19976;-68
2024/03/15 07:54:11;;;;;;;;;;;;;;;6.98;59.73;94939.84;4983467;28;19926;-68
2024/03/15 07:56:36;;;;;;;;;;;;;;;7.58;58.92;94935.88;4980343;28;19924;-68
2024/03/15 07:59:03;;;;;;;;;;;;;;;8.01;56.75;94936.25;4979694;28;20399;-68
2024/03/15 08:01:28;;;;;;;;;;;;;;;8.04;57.48;94933.25;4979742;28;20419;-68
2024/03/15 08:03:53;;;;;;;;;;;;;;;7.64;56.88;94938.66;4979828;28;19941;-68
2024/03/15 08:06:19;;;;;;;;;;;;;;;7.59;57.81;94943.66;4980816;28;20004;-68
2024/03/15 08:08:44;;;;;;;;;;;;;;;8.09;57.68;94937.19;4979129;28;19992;-67
2024/03/15 08:11:11;;;;;;;;;;;;;;;7.26;59.00;94933.25;4977030;28;19925;-68
2024/03/15 08:13:38;;;;;;;;;;;;;;;7.31;59.92;94927.44;4979068;28;19936;-68
2024/03/15 08:17:04;;;;;;;;;;;;;;;8.43;56.22;94935.84;4980100;28;19979;-68
2024/03/15 08:18:58;;;;;;;;;;;;;;;8.00;56.70;94937.25;4976929;28;19922;-68
2024/03/15 08:21:24;;;;;;;;;;;;;;;8.33;56.05;94933.47;4982517;28;20426;-68
2024/03/15 08:23:49;;;;;;;;;;;;;;;7.41;59.74;94925.38;4980793;28;19929;-68
2024/03/15 08:26:14;;;;;;;;;;;;;;;8.15;57.16;94936.47;4979962;28;19925;-68
2024/03/15 08:28:40;;;;;;;;;;;;;;;8.84;56.06;94933.78;4981511;28;19929;-68
2024/03/15 08:31:05;;;;;;;;;;;;;;;9.12;54.34;94933.16;4979363;28;19964;-68
2024/03/15 08:33:31;;;;;;;;;;;;;;;7.84;57.24;94942.66;4978961;28;20008;-68
2024/03/15 08:35:56;;;;;;;;;;;;;;;8.64;56.02;94942.31;4984856;28;20057;-67
2024/03/15 08:38:22;;;;;;;;;;;;;;;8.93;54.07;94941.47;4986141;28;19925;-68
2024/03/15 08:40:47;;;;;;;;;;;;;;;8.65;54.61;94959.88;4985271;28;20413;-68
2024/03/15 08:43:12;;;;;;;;;;;;;;;8.55;56.17;94949.53;4982922;28;19988;-68
2024/03/15 08:45:38;;;;;;;;;;;;;;;8.18;56.16;94962.63;4981157;28;19921;-68
2024/03/15 08:48:03;;;;;;;;;;;;;;;7.69;59.72;94967.28;4984445;28;19926;-68
2024/03/15 08:50:32;;;;;;;;;;;;;;;8.49;55.87;94955.53;4983561;28;19926;-68
2024/03/15 08:52:58;;;;;;;;;;;;;;;8.70;54.80;94957.47;4991289;28;20370;-68
2024/03/15 08:55:23;;;;;;;;;;;;;;;8.27;56.20;94950.94;4989325;28;19972;-68
2024/03/15 08:57:48;;;;;;;;;;;;;;;8.47;56.95;94962.88;4982448;28;19961;-68
2024/03/15 09:00:13;;;;;;;;;;;;;;;8.23;56.91;94962.09;4985438;28;20448;-68
2024/03/15 09:02:39;;;;;;;;;;;;;;;8.71;55.55;94967.09;4981036;28;19921;-67
2024/03/15 09:05:08;;;;;;;;;;;;;;;8.66;55.68;94964.16;4981965;28;20024;-67
2024/03/15 09:07:34;;;;;;;;;;;;;;;8.82;54.31;94961.34;4982566;28;20008;-67
2024/03/15 09:09:59;;;;;;;;;;;;;;;6.34;60.79;94969.72;4969257;28;20020;-67
2024/03/15 09:12:24;;;;;;;;;;;;;;;6.36;61.41;94962.47;4983500;28;19922;-67
2024/03/15 09:14:52;;;;;;;;;;;;;;;8.24;57.31;94964.56;4974615;28;19926;-68
2024/03/15 09:17:18;;;;;;;;;;;;;;;8.11;57.27;94965.16;4981949;28;19929;-67
2024/03/15 09:19:43;;;;;;;;;;;;;;;8.67;55.81;94974.59;4980436;28;19930;-67
2024/03/15 09:22:12;;;;;;;;;;;;;;;8.25;57.43;94974.16;4984910;28;19932;-67
2024/03/15 09:24:38;;;;;;;;;;;;;;;7.82;58.84;94990.53;4977807;28;19932;-67
2024/03/15 09:27:03;;;;;;;;;;;;;;;7.72;58.99;94972.19;4986166;28;19918;-67
2024/03/15 09:29:28;;;;;;;;;;;;;;;8.84;56.47;94976.25;4977886;28;19941;-67
2024/03/15 09:31:56;;;;;;;;;;;;;;;8.36;57.09;94988.00;4985422;28;20103;-68
2024/03/15 09:34:22;;;;;;;;;;;;;;;8.92;55.92;94981.47;4980746;28;19926;-67
2024/03/15 09:36:47;;;;;;;;;;;;;;;8.27;57.42;94992.56;4981835;28;19918;-67
2024/03/15 09:39:14;;;;;;;;;;;;;;;8.50;56.99;94979.22;4980321;28;19922;-68
2024/03/15 09:41:40;;;;;;;;;;;;;;;7.96;58.89;94981.00;4981213;28;19929;-67
2024/03/15 09:44:07;;;;;;;;;;;;;;;7.37;60.71;94990.28;4974027;28;20460;-67
2024/03/15 09:46:33;;;;;;;;;;;;;;;7.96;59.66;94988.16;4980943;28;19926;-67
2024/03/15 09:48:58;;;;;;;;;;;;;;;7.33;60.46;94995.09;4975627;28;20485;-67
2024/03/15 09:51:23;;;;;;;;;;;;;;;7.13;60.75;94987.59;4976725;28;20080;-67
2024/03/15 09:53:49;;;;;;;;;;;;;;;7.19;61.60;94993.19;4985040;28;19926;-67
2024/03/15 09:56:14;;;;;;;;;;;;;;;7.58;60.87;94991.50;4979807;28;19925;-67
2024/03/15 09:58:40;;;;;;;;;;;;;;;7.96;58.72;94983.66;4979649;28;19933;-67
2024/03/15 10:01:05;;;;;;;;;;;;;;;7.40;60.59;94989.94;4979755;28;19926;-67
2024/03/15 10:03:32;;;;;;;;;;;;;;;7.72;60.79;94984.63;4979576;28;20395;-67
2024/03/15 10:05:57;;;;;;;;;;;;;;;8.46;57.70;94980.59;4980285;28;20049;-68
2024/03/15 10:08:23;;;;;;;;;;;;;;;8.74;57.56;94987.94;4984653;28;19966;-67
2024/03/15 10:10:48;;;;;;;;;;;;;;;8.56;57.95;94986.47;4984642;28;19936;-67
2024/03/15 10:13:14;;;;;;;;;;;;;;;8.33;59.36;94983.88;4981090;28;19922;-68
2024/03/15 10:15:42;;;;;;;;;;;;;;;7.72;61.47;94984.63;4981119;28;20013;-68
2024/03/15 10:18:10;;;;;;;;;;;;;;;8.14;59.60;94985.19;4983853;28;19930;-68
2024/03/15 10:20:36;;;;;;;;;;;;;;;7.78;61.20;94983.94;4980379;28;20585;-68
2024/03/15 10:23:01;;;;;;;;;;;;;;;8.65;58.77;94997.00;4979532;28;20020;-68
2024/03/15 10:25:28;;;;;;;;;;;;;;;7.65;59.46;94993.28;4980271;28;19937;-68
2024/03/15 10:27:54;;;;;;;;;;;;;;;8.12;60.15;94998.63;4979052;28;19922;-68
2024/03/15 10:30:22;;;;;;;;;;;;;;;8.02;61.13;94992.72;4979659;28;19929;-67
2024/03/15 10:32:51;;;;;;;;;;;;;;;6.85;65.05;95000.41;4980800;28;19926;-68
2024/03/15 10:35:19;;;;;;;;;;;;;;;7.52;62.85;94995.69;4978058;28;20351;-68
2024/03/15 10:37:44;;;;;;;;;;;;;;;8.20;60.32;94997.75;4982251;28;20268;-68
2024/03/15 10:40:13;;;;;;;;;;;;;;;8.34;60.38;94990.84;4980124;28;19925;-68
2024/03/15 10:42:42;;;;;;;;;;;;;;;8.85;58.76;94997.31;4983095;28;19937;-68
2024/03/15 10:45:08;;;;;;;;;;;;;;;8.15;60.93;94997.44;4979804;28;20564;-68
2024/03/15 10:47:34;;;;;;;;;;;;;;;8.76;59.89;94991.25;4990545;28;19922;-68
2024/03/15 10:49:59;;;;;;;;;;;;;;;9.11;57.71;95001.34;4980257;28;20473;-68
2024/03/15 10:52:24;;;;;;;;;;;;;;;8.52;59.69;94993.16;4980403;28;19921;-68
2024/03/15 10:54:50;;;;;;;;;;;;;;;8.68;59.30;94991.34;4977309;28;20016;-68
2024/03/15 10:57:15;;;;;;;;;;;;;;;8.76;59.61;94996.56;4971772;28;20509;-68
2024/03/15 10:59:42;;;;;;;;;;;;;;;7.94;62.12;94995.44;4980899;28;20004;-68
2024/03/15 11:02:07;;;;;;;;;;;;;;;8.16;60.75;94997.25;4971685;28;19929;-68
2024/03/15 11:04:33;;;;;;;;;;;;;;;8.58;60.47;94991.63;4994571;28;19937;-68
2024/03/15 11:06:59;;;;;;;;;;;;;;;8.69;58.40;94998.31;4994621;28;19924;-69
2024/03/15 11:09:24;;;;;;;;;;;;;;;8.97;58.70;95016.28;4978849;28;19922;-68
2024/03/15 11:12:04;;;;;;;;;;;;;;;9.00;57.78;95000.00;4983542;28;20545;-67
2024/03/15 11:14:34;;;;;;;;;;;;;;;7.68;63.12;95005.34;4977710;28;19925;-69
2024/03/15 11:17:01;;;;;;;;;;;;;;;8.57;59.77;95001.38;4979494;28;20008;-69
2024/03/15 11:19:26;;;;;;;;;;;;;;;7.51;63.19;95005.44;4981026;28;20343;-68
2024/03/15 11:22:04;;;;;;;;;;;;;;;7.49;63.48;94999.50;4979634;28;19922;-69
2024/03/15 11:24:38;;;;;;;;;;;;;;;8.62;60.59;95008.81;4979421;28;19992;-69
2024/03/15 11:27:03;;;;;;;;;;;;;;;8.77;59.66;95000.88;4976771;28;19918;-69
2024/03/15 11:29:34;;;;;;;;;;;;;;;9.05;58.70;95007.41;4979733;28;19933;-69
2024/03/15 11:32:00;;;;;;;;;;;;;;;8.09;60.61;95006.13;4980860;28;19918;-69
2024/03/15 11:34:25;;;;;;;;;;;;;;;8.51;60.36;95004.78;4975676;28;19925;-69
2024/03/15 11:36:51;;;;;;;;;;;;;;;8.52;61.08;95000.28;4979182;28;19949;-69
2024/03/15 11:39:16;;;;;;;;;;;;;;;9.12;58.08;95000.38;4981106;28;20359;-68
2024/03/15 11:41:41;;;;;;;;;;;;;;;9.04;59.73;94989.81;4975476;28;19938;-69
2024/03/15 11:44:07;;;;;;;;;;;;;;;8.18;62.72;94995.28;4976110;28;20040;-69
2024/03/15 11:46:32;;;;;;;;;;;;;;;9.05;58.80;94994.16;4977342;28;20023;-69
2024/03/15 11:49:01;;;;;;;;;;;;;;;9.52;57.60;94992.06;4976322;28;20170;-69
2024/03/15 11:51:26;;;;;;;;;;;;;;;9.46;58.18;94987.50;4980059;28;20479;-68
2024/03/15 11:53:52;;;;;;;;;;;;;;;9.93;57.15;94990.66;4976005;28;19929;-69
2024/03/15 11:56:17;;;;;;;;;;;;;;;9.72;56.92;94991.44;4975894;28;20532;-68
2024/03/15 11:58:43;;;;;;;;;;;;;;;10.20;56.28;94987.47;4978735;28;20295;-69
2024/03/15 12:01:08;;;;;;;;;;;;;;;10.05;56.34;94990.16;4981013;28;20367;-69
2024/03/15 12:03:33;;;;;;;;;;;;;;;10.78;53.23;94997.09;4980388;28;19981;-69
2024/03/15 12:06:00;;;;;;;;;;;;;;;10.71;54.76;94988.28;4981811;28;19933;-68
2024/03/15 12:08:25;;;;;;;;;;;;;;;10.47;52.38;94993.00;4978196;28;19922;-69
2024/03/15 12:10:51;;;;;;;;;;;;;;;9.97;56.09;94981.28;4977435;28;20561;-69
2024/03/15 12:13:19;;;;;;;;;;;;;;;10.23;54.68;94987.91;4982918;28;20454;-68
2024/03/15 12:15:45;;;;;;;;;;;;;;;9.35;56.98;94983.47;4983535;28;19921;-68
2024/03/15 12:18:14;;;;;;;;;;;;;;;8.89;57.94;94987.16;4982989;28;19930;-68
2024/03/15 12:20:40;;;;;;;;;;;;;;;10.29;54.19;94975.66;4980109;28;19987;-68
2024/03/15 12:23:05;;;;;;;;;;;;;;;10.08;53.69;94972.03;4980318;28;20032;-69
2024/03/15 12:25:31;;;;;;;;;;;;;;;7.19;63.34;94980.78;4981113;28;19930;-69
2024/03/15 12:27:57;;;;;;;;;;;;;;;9.62;56.20;94969.69;4990818;28;19922;-68
2024/03/15 12:30:22;;;;;;;;;;;;;;;10.56;54.09;94986.53;4989524;28;19933;-68
2024/03/15 12:32:47;;;;;;;;;;;;;;;9.99;55.75;94965.13;4986657;28;19968;-69
2024/03/15 12:35:13;;;;;;;;;;;;;;;10.16;54.93;94972.91;4982701;28;19922;-68
2024/03/15 12:37:38;;;;;;;;;;;;;;;9.63;54.83;94966.84;4983035;28;19937;-68
2024/03/15 12:40:06;;;;;;;;;;;;;;;9.74;56.15;94970.84;4982452;28;19917;-69
2024/03/15 12:42:31;;;;;;;;;;;;;;;10.42;52.86;94964.31;4975726;28;20016;-68
2024/03/15 12:44:57;;;;;;;;;;;;;;;10.33;52.88;94974.28;4981774;28;20041;-68
2024/03/15 12:47:22;;;;;;;;;;;;;;;11.32;50.05;94960.13;4981368;28;19957;-68
2024/03/15 12:49:47;;;;;;;;;;;;;;;11.84;49.47;94962.38;4983803;28;20016;-69
2024/03/15 12:52:13;;;;;;;;;;;;;;;11.17;49.73;94962.13;4985749;28;19952;-68